Time;durP1;ratioP1;P1;durP2;ratioP2;P2;SDS_P1;SDS_P2;PMS_P1;PMS_P2;Temp;Humidity;BMP_temperature;BMP_pressure;BME280_temperature;BME280_humidity;BME280_pressure;Samples;Min_cycle;Max_cycle;Signal;HPM_P1;HPM_P2
2021/07/28 00:02:05;;;;;;;12.45;9.18;;;16.50;99.90;;;;;;5052105;28;20063;-88
2021/07/28 00:04:36;;;;;;;10.45;7.93;;;16.40;99.90;;;;;;5050776;28;20103;-88
2021/07/28 00:07:02;;;;;;;11.63;8.85;;;16.40;99.90;;;;;;5032918;28;20034;-88
2021/07/28 00:09:28;;;;;;;11.32;8.90;;;16.40;99.90;;;;;;5034736;28;20085;-88
2021/07/28 00:11:55;;;;;;;11.60;8.98;;;16.40;99.90;;;;;;5035823;28;20032;-88
2021/07/28 00:14:21;;;;;;;11.32;9.07;;;16.30;99.90;;;;;;5050780;28;20025;-88
2021/07/28 00:16:47;;;;;;;13.77;10.70;;;16.30;99.90;;;;;;5035779;28;20052;-88
2021/07/28 00:19:18;;;;;;;11.80;10.15;;;16.40;99.90;;;;;;5050465;28;20073;-89
2021/07/28 00:24:44;;;;;;;11.25;8.05;;;16.30;99.90;;;;;;5022925;28;20038;-90
2021/07/28 00:27:10;;;;;;;9.02;7.72;;;16.30;99.90;;;;;;5050174;28;20136;-89
2021/07/28 00:29:38;;;;;;;10.70;8.10;;;16.30;99.90;;;;;;5050109;28;20133;-90
2021/07/28 00:32:06;;;;;;;11.65;9.45;;;16.30;99.90;;;;;;5049881;28;20338;-89
2021/07/28 00:34:32;;;;;;;10.98;9.02;;;16.20;99.90;;;;;;5047274;28;20046;-90
2021/07/28 00:36:59;;;;;;;10.05;8.15;;;16.20;99.90;;;;;;5032421;28;20492;-89
2021/07/28 00:39:25;;;;;;;10.68;8.80;;;16.20;99.90;;;;;;5049618;28;20404;-88
2021/07/28 00:41:51;;;;;;;12.23;9.88;;;16.20;99.90;;;;;;5034173;28;20072;-89
2021/07/28 00:44:17;;;;;;;12.25;9.80;;;16.20;99.90;;;;;;5032001;28;20049;-89
2021/07/28 00:46:44;;;;;;;9.90;8.70;;;16.20;99.90;;;;;;5049892;28;20021;-89
2021/07/28 00:49:14;;;;;;;10.70;8.80;;;16.20;99.90;;;;;;5047944;28;20029;-88
2021/07/28 00:51:40;;;;;;;10.52;8.00;;;16.20;99.90;;;;;;5042723;28;20481;-89
2021/07/28 00:54:08;;;;;;;9.60;8.00;;;16.10;99.90;;;;;;5048512;28;20041;-89
2021/07/28 00:56:35;;;;;;;8.55;7.05;;;16.10;99.90;;;;;;5031350;28;20549;-89
2021/07/28 00:59:01;;;;;;;9.10;7.07;;;16.10;99.90;;;;;;5031143;28;20060;-89
2021/07/28 01:01:27;;;;;;;10.32;7.15;;;16.10;99.90;;;;;;5032310;28;20037;-88
2021/07/28 01:03:53;;;;;;;10.05;7.35;;;16.10;99.90;;;;;;5033765;28;20057;-88
2021/07/28 01:06:20;;;;;;;8.32;6.75;;;16.10;99.90;;;;;;5050073;28;20366;-88
2021/07/28 01:08:47;;;;;;;8.80;7.35;;;16.10;99.90;;;;;;5049362;28;20521;-88
2021/07/28 01:11:23;;;;;;;9.38;7.28;;;16.00;99.90;;;;;;5050137;28;20591;-89
2021/07/28 01:13:50;;;;;;;8.07;6.55;;;16.10;99.90;;;;;;5049935;28;20030;-88
2021/07/28 01:16:22;;;;;;;9.25;6.93;;;16.10;99.90;;;;;;5050026;28;20033;-89
2021/07/28 01:18:50;;;;;;;9.00;6.55;;;16.10;99.90;;;;;;5049615;28;20186;-87
2021/07/28 01:21:18;;;;;;;8.60;6.90;;;16.00;99.90;;;;;;5052755;28;20044;-88
2021/07/28 01:23:49;;;;;;;8.55;6.75;;;16.00;99.90;;;;;;5053520;28;20500;-90
2021/07/28 01:26:16;;;;;;;7.95;6.32;;;16.00;99.90;;;;;;5050723;28;20032;-88
2021/07/28 01:28:42;;;;;;;8.82;6.55;;;16.00;99.90;;;;;;5053139;28;20060;-89
2021/07/28 01:31:11;;;;;;;9.20;7.07;;;15.90;99.90;;;;;;5038507;28;20496;-88
2021/07/28 01:33:39;;;;;;;9.95;6.82;;;15.90;99.90;;;;;;5057235;28;20029;-89
2021/07/28 01:36:06;;;;;;;8.13;6.85;;;15.90;99.90;;;;;;5067399;28;20025;-87
2021/07/28 01:38:33;;;;;;;8.85;6.82;;;15.90;99.90;;;;;;5068494;28;20491;-88
2021/07/28 01:41:03;;;;;;;8.75;7.40;;;15.90;99.90;;;;;;5064193;28;20420;-88
2021/07/28 01:43:30;;;;;;;9.30;7.28;;;15.90;99.90;;;;;;5069593;28;20029;-88
2021/07/28 01:45:58;;;;;;;10.25;7.35;;;15.80;99.90;;;;;;5053687;28;20441;-87
2021/07/28 01:48:24;;;;;;;10.20;8.23;;;15.90;99.90;;;;;;5069664;28;20063;-88
2021/07/28 01:50:51;;;;;;;9.93;8.05;;;15.90;99.90;;;;;;5052486;28;20040;-89
2021/07/28 01:53:18;;;;;;;11.10;8.82;;;15.90;99.90;;;;;;5069034;28;20033;-88
2021/07/28 01:55:44;;;;;;;10.00;7.85;;;15.90;99.90;;;;;;5069608;28;20120;-88
2021/07/28 01:58:12;;;;;;;10.38;8.18;;;15.90;99.90;;;;;;5044131;28;20132;-88
2021/07/28 02:00:39;;;;;;;11.00;8.40;;;15.80;99.90;;;;;;5045174;28;20045;-88
2021/07/28 02:03:05;;;;;;;8.90;7.57;;;15.80;99.90;;;;;;5052707;28;20484;-87
2021/07/28 02:05:34;;;;;;;11.43;8.43;;;15.80;99.90;;;;;;5069129;28;20033;-89
2021/07/28 02:08:05;;;;;;;10.07;7.80;;;15.80;99.90;;;;;;5069039;28;20066;-89
2021/07/28 02:10:34;;;;;;;10.45;8.35;;;15.80;99.90;;;;;;5069060;28;20124;-88
2021/07/28 02:13:01;;;;;;;10.23;8.02;;;15.80;99.90;;;;;;5053677;28;20041;-88
2021/07/28 02:15:29;;;;;;;11.52;8.85;;;15.80;99.90;;;;;;5070830;28;20037;-88
2021/07/28 02:17:56;;;;;;;11.98;8.93;;;15.80;99.90;;;;;;5061334;28;20044;-88
2021/07/28 02:20:23;;;;;;;11.80;9.63;;;15.80;99.90;;;;;;5059451;28;20041;-87
2021/07/28 02:22:49;;;;;;;12.45;10.18;;;15.80;99.90;;;;;;5093550;28;20043;-89
2021/07/28 02:25:17;;;;;;;12.23;9.40;;;15.80;99.90;;;;;;5076386;28;20025;-88
2021/07/28 02:27:44;;;;;;;11.73;9.20;;;15.70;99.90;;;;;;5092861;28;20041;-87
2021/07/28 02:30:14;;;;;;;10.95;8.90;;;15.70;99.90;;;;;;5076930;28;20122;-88
2021/07/28 02:32:40;;;;;;;14.35;9.95;;;15.70;99.90;;;;;;5076716;28;20472;-88
2021/07/28 02:35:08;;;;;;;12.35;9.70;;;15.70;99.90;;;;;;5093495;28;20035;-88
2021/07/28 02:37:34;;;;;;;11.77;9.18;;;15.70;99.90;;;;;;5069491;28;20087;-89
2021/07/28 02:40:01;;;;;;;10.15;8.10;;;15.70;99.90;;;;;;5057539;28;20103;-89
2021/07/28 02:42:27;;;;;;;10.73;8.55;;;15.70;99.90;;;;;;5056310;28;20072;-89
2021/07/28 02:44:52;;;;;;;11.57;9.20;;;15.70;99.90;;;;;;5056347;28;20075;-88
2021/07/28 02:47:18;;;;;;;12.77;9.60;;;15.70;99.90;;;;;;5055946;28;20065;-89
2021/07/28 02:49:44;;;;;;;10.88;8.48;;;15.70;99.90;;;;;;5056750;28;20033;-89
2021/07/28 02:52:13;;;;;;;10.20;8.13;;;15.70;99.90;;;;;;5055973;28;20116;-89
2021/07/28 02:54:39;;;;;;;11.88;9.73;;;15.70;99.90;;;;;;5056039;28;20043;-88
2021/07/28 02:57:06;;;;;;;12.18;9.35;;;15.70;99.90;;;;;;5056149;28;20028;-89
2021/07/28 02:59:31;;;;;;;11.90;8.98;;;15.70;99.90;;;;;;5055129;28;20044;-89
2021/07/28 03:01:57;;;;;;;12.60;9.02;;;15.70;99.90;;;;;;5053958;28;20036;-87
2021/07/28 03:04:23;;;;;;;13.45;10.07;;;15.80;99.90;;;;;;5036670;28;20082;-88
2021/07/28 03:06:48;;;;;;;12.75;10.80;;;15.90;99.90;;;;;;5054240;28;20044;-89
2021/07/28 03:09:15;;;;;;;13.07;9.50;;;15.90;99.90;;;;;;5053470;28;20144;-88
2021/07/28 03:11:42;;;;;;;12.13;9.13;;;16.00;99.90;;;;;;5056288;28;20457;-88
2021/07/28 03:14:08;;;;;;;12.32;9.35;;;16.00;99.90;;;;;;5038087;28;20040;-88
2021/07/28 03:16:33;;;;;;;14.55;11.45;;;16.00;99.90;;;;;;5055115;28;20033;-88
2021/07/28 03:19:02;;;;;;;15.90;12.00;;;16.00;99.90;;;;;;5035309;28;20497;-88
2021/07/28 03:21:27;;;;;;;14.88;11.55;;;16.00;99.90;;;;;;5036832;28;20045;-88
2021/07/28 03:23:53;;;;;;;14.98;11.70;;;16.00;99.90;;;;;;5037216;28;20141;-89
2021/07/28 03:26:19;;;;;;;13.73;10.32;;;16.00;99.90;;;;;;5036908;28;20378;-89
2021/07/28 03:28:44;;;;;;;13.45;10.77;;;16.00;99.90;;;;;;5054498;28;20469;-88
2021/07/28 03:31:10;;;;;;;16.08;12.30;;;16.00;99.90;;;;;;5038016;28;20037;-89
2021/07/28 03:33:38;;;;;;;17.90;13.35;;;16.00;99.90;;;;;;5057873;28;20444;-89
2021/07/28 03:36:04;;;;;;;17.67;13.23;;;16.00;99.90;;;;;;5058168;28;20045;-89
2021/07/28 03:38:29;;;;;;;14.13;10.93;;;16.00;99.90;;;;;;5044968;28;20038;-89
2021/07/28 03:40:55;;;;;;;15.98;11.80;;;16.00;99.90;;;;;;5064789;28;20049;-88
2021/07/28 03:43:20;;;;;;;15.98;12.73;;;16.10;99.90;;;;;;5047141;28;20040;-88
2021/07/28 03:45:47;;;;;;;17.08;13.07;;;16.10;99.90;;;;;;5042873;28;20025;-88
2021/07/28 03:48:14;;;;;;;18.52;12.85;;;16.00;99.90;;;;;;5052967;28;20408;-89
2021/07/28 03:50:39;;;;;;;15.90;11.63;;;16.10;99.90;;;;;;5052230;28;20056;-88
2021/07/28 03:53:05;;;;;;;14.50;11.32;;;16.00;99.90;;;;;;5052033;28;20033;-89
2021/07/28 03:55:31;;;;;;;17.60;12.98;;;16.00;99.90;;;;;;5051531;28;20466;-88
2021/07/28 03:57:57;;;;;;;17.92;13.95;;;16.00;99.90;;;;;;5036565;28;20040;-88
2021/07/28 04:00:23;;;;;;;14.25;11.82;;;16.00;99.90;;;;;;5051083;28;20132;-88
2021/07/28 04:02:50;;;;;;;16.08;12.23;;;16.00;99.90;;;;;;5036549;28;20026;-89
2021/07/28 04:05:16;;;;;;;17.52;12.98;;;16.00;99.90;;;;;;5051819;28;20041;-88
2021/07/28 04:07:42;;;;;;;15.25;11.95;;;16.10;99.90;;;;;;5035945;28;20044;-88
2021/07/28 04:10:10;;;;;;;15.82;11.50;;;16.10;99.90;;;;;;5035812;28;20033;-88
2021/07/28 04:12:36;;;;;;;13.48;11.25;;;16.10;99.90;;;;;;5050695;28;20116;-89
2021/07/28 04:15:03;;;;;;;13.90;11.50;;;16.20;99.90;;;;;;5051240;28;20057;-88
2021/07/28 04:17:30;;;;;;;15.93;12.07;;;16.20;99.90;;;;;;5035337;28;20064;-87
2021/07/28 04:19:56;;;;;;;14.05;11.63;;;16.20;99.90;;;;;;5050726;28;20404;-88
2021/07/28 04:22:22;;;;;;;13.88;10.95;;;16.20;99.90;;;;;;5051208;28;20133;-88
2021/07/28 04:24:48;;;;;;;15.90;12.30;;;16.20;99.90;;;;;;5050757;28;20529;-88
2021/07/28 04:27:14;;;;;;;17.17;12.77;;;16.30;99.90;;;;;;5051095;28;20485;-88
2021/07/28 04:29:40;;;;;;;15.93;11.55;;;16.20;99.90;;;;;;5051037;28;20033;-88
2021/07/28 04:32:07;;;;;;;14.27;11.02;;;16.30;99.90;;;;;;5034506;28;20108;-87
2021/07/28 04:34:38;;;;;;;13.57;10.38;;;16.30;99.90;;;;;;5044231;28;20038;-89
2021/07/28 04:37:04;;;;;;;13.25;11.35;;;16.40;99.90;;;;;;5049065;28;20060;-90
2021/07/28 04:39:34;;;;;;;12.93;10.52;;;16.40;99.90;;;;;;5032183;28;20107;-91
2021/07/28 04:42:01;;;;;;;12.13;9.25;;;16.40;99.90;;;;;;5049688;28;20042;-89
2021/07/28 04:44:27;;;;;;;14.18;10.95;;;16.40;99.90;;;;;;5034788;28;20038;-90
2021/07/28 04:46:56;;;;;;;14.15;10.70;;;16.50;99.90;;;;;;5047129;28;20037;-91
2021/07/28 04:49:22;;;;;;;15.10;10.63;;;16.50;99.90;;;;;;5030083;28;20121;-88
2021/07/28 04:51:48;;;;;;;13.20;10.05;;;16.50;99.90;;;;;;5030317;28;20072;-89
2021/07/28 04:54:15;;;;;;;17.10;13.73;;;16.60;99.90;;;;;;5013445;28;20030;-89
2021/07/28 04:56:41;;;;;;;16.02;12.93;;;16.50;99.90;;;;;;5030763;28;20077;-88
2021/07/28 04:59:07;;;;;;;14.43;11.50;;;16.50;99.90;;;;;;5049847;28;20053;-89
2021/07/28 05:01:33;;;;;;;13.00;9.88;;;16.60;99.90;;;;;;5050377;28;20053;-89
2021/07/28 05:03:59;;;;;;;15.05;12.43;;;16.60;99.90;;;;;;5049535;28;20040;-90
2021/07/28 05:06:25;;;;;;;12.73;10.25;;;16.60;99.90;;;;;;5032616;28;20505;-89
2021/07/28 05:08:51;;;;;;;12.88;9.80;;;16.60;99.90;;;;;;5067713;28;20033;-88
2021/07/28 05:11:17;;;;;;;15.80;11.60;;;16.70;99.90;;;;;;5053508;28;20361;-88
2021/07/28 05:13:44;;;;;;;15.60;12.25;;;16.70;99.90;;;;;;5054627;28;20057;-90
2021/07/28 05:16:10;;;;;;;13.65;11.30;;;16.70;99.90;;;;;;5064277;28;20477;-89
2021/07/28 05:18:36;;;;;;;17.17;12.90;;;16.70;99.90;;;;;;5049500;28;20044;-88
2021/07/28 05:21:02;;;;;;;14.13;11.50;;;16.70;99.90;;;;;;5048512;28;20136;-89
2021/07/28 05:23:28;;;;;;;13.20;10.55;;;16.80;99.90;;;;;;5047732;28;20030;-88
2021/07/28 05:25:54;;;;;;;12.95;11.02;;;16.80;99.90;;;;;;5048543;28;20069;-88
2021/07/28 05:28:20;;;;;;;16.63;12.35;;;16.80;99.90;;;;;;5034669;28;20125;-89
2021/07/28 05:30:46;;;;;;;17.52;13.63;;;16.80;99.90;;;;;;5045015;28;20037;-89
2021/07/28 05:33:12;;;;;;;17.27;13.52;;;16.80;99.90;;;;;;5018863;28;20029;-88
2021/07/28 05:35:45;;;;;;;17.67;14.27;;;16.90;99.90;;;;;;5039095;28;20046;-89
2021/07/28 05:38:10;;;;;;;18.73;14.63;;;16.90;99.90;;;;;;5041555;28;20037;-90
2021/07/28 05:40:36;;;;;;;17.65;14.90;;;16.90;99.90;;;;;;5039835;28;20046;-90
2021/07/28 05:43:03;;;;;;;14.98;12.77;;;16.90;99.90;;;;;;5045997;28;20548;-89
2021/07/28 05:45:28;;;;;;;15.65;12.88;;;16.90;99.90;;;;;;5061311;28;20029;-90
2021/07/28 05:47:54;;;;;;;16.38;13.50;;;16.90;99.90;;;;;;5069316;28;20029;-89
2021/07/28 05:50:21;;;;;;;16.52;13.85;;;17.00;99.90;;;;;;5055955;28;20105;-89
2021/07/28 05:52:47;;;;;;;15.18;12.63;;;17.00;99.90;;;;;;5048702;28;20224;-88
2021/07/28 05:55:13;;;;;;;15.52;12.98;;;17.00;99.90;;;;;;5028967;28;20541;-89
2021/07/28 05:57:40;;;;;;;18.00;14.73;;;17.10;99.90;;;;;;5037173;28;20087;-89
2021/07/28 06:00:06;;;;;;;18.83;15.05;;;17.10;99.90;;;;;;5040729;28;20157;-89
2021/07/28 06:02:32;;;;;;;20.63;15.23;;;17.10;99.90;;;;;;5017027;28;20065;-89
2021/07/28 06:04:58;;;;;;;17.25;14.10;;;17.10;99.90;;;;;;5032489;28;20049;-89
2021/07/28 06:07:24;;;;;;;17.65;14.27;;;17.20;99.90;;;;;;5048985;28;20125;-89
2021/07/28 06:09:49;;;;;;;16.77;13.90;;;17.20;99.90;;;;;;5047559;28;20038;-90
2021/07/28 06:12:18;;;;;;;16.33;12.95;;;17.30;99.90;;;;;;5037282;28;20083;-89
2021/07/28 06:14:45;;;;;;;17.15;13.73;;;17.40;99.90;;;;;;5045546;28;20030;-91
2021/07/28 06:17:11;;;;;;;15.57;12.85;;;17.40;99.90;;;;;;5033986;28;20035;-90
2021/07/28 06:19:40;;;;;;;16.58;14.57;;;17.50;99.90;;;;;;5027496;28;20545;-89
2021/07/28 06:22:08;;;;;;;17.50;14.65;;;17.50;99.90;;;;;;5042258;28;20072;-90
2021/07/28 06:24:34;;;;;;;19.25;16.98;;;17.60;99.90;;;;;;5035491;28;20060;-88
2021/07/28 06:27:00;;;;;;;17.92;15.50;;;17.60;99.90;;;;;;5019073;28;20045;-88
2021/07/28 06:29:26;;;;;;;18.40;15.00;;;17.70;99.90;;;;;;5051653;28;20361;-90
2021/07/28 06:31:55;;;;;;;18.23;15.00;;;17.70;99.90;;;;;;5051889;28;20063;-89
2021/07/28 06:34:21;;;;;;;17.00;14.88;;;17.80;99.90;;;;;;5051970;28;20032;-90
2021/07/28 06:36:48;;;;;;;17.67;14.23;;;17.80;99.90;;;;;;5051710;28;20037;-89
2021/07/28 06:39:15;;;;;;;17.83;14.25;;;17.90;99.90;;;;;;5036030;28;20041;-90
2021/07/28 06:41:41;;;;;;;18.38;13.40;;;18.00;99.90;;;;;;5041687;28;20037;-89
2021/07/28 06:44:07;;;;;;;16.23;14.00;;;18.10;99.90;;;;;;5051962;28;20060;-91
2021/07/28 06:46:33;;;;;;;16.27;13.93;;;18.10;99.90;;;;;;5035330;28;20481;-90
2021/07/28 06:48:59;;;;;;;18.33;15.32;;;18.20;99.90;;;;;;5052019;28;20029;-89
2021/07/28 06:51:28;;;;;;;16.55;14.60;;;18.30;99.90;;;;;;5051521;28;20037;-90
2021/07/28 06:53:54;;;;;;;17.15;14.88;;;18.30;99.90;;;;;;5041518;28;20037;-90
2021/07/28 06:56:20;;;;;;;16.55;13.80;;;18.30;99.90;;;;;;5043279;28;20041;-90
2021/07/28 06:58:48;;;;;;;17.13;15.10;;;18.30;99.90;;;;;;5033918;28;20036;-87
2021/07/28 07:01:14;;;;;;;16.80;14.60;;;18.30;99.90;;;;;;5042427;28;20033;-88
2021/07/28 07:03:40;;;;;;;16.98;14.98;;;18.20;99.90;;;;;;5051995;28;20133;-87
2021/07/28 07:06:06;;;;;;;21.73;17.42;;;18.20;99.90;;;;;;5043212;28;20033;-88
2021/07/28 07:08:32;;;;;;;18.77;15.13;;;18.20;99.90;;;;;;5035670;28;20037;-89
2021/07/28 07:10:59;;;;;;;18.35;16.38;;;18.30;99.90;;;;;;5060331;28;20097;-88
2021/07/28 07:13:25;;;;;;;17.02;15.00;;;18.40;99.90;;;;;;5055521;28;20029;-88
2021/07/28 07:15:51;;;;;;;16.15;13.50;;;18.50;99.90;;;;;;5045260;28;20193;-88
2021/07/28 07:18:18;;;;;;;15.48;12.65;;;18.60;99.90;;;;;;5031721;28;20066;-88
2021/07/28 07:20:45;;;;;;;14.43;12.57;;;18.70;99.90;;;;;;5020853;28;20049;-87
2021/07/28 07:23:12;;;;;;;15.88;12.35;;;18.90;99.90;;;;;;5015301;28;20034;-87
2021/07/28 07:25:39;;;;;;;11.90;10.65;;;18.80;99.90;;;;;;5023353;28;20063;-86
2021/07/28 07:28:06;;;;;;;14.27;12.50;;;18.90;99.90;;;;;;5051568;28;20030;-90
2021/07/28 07:30:34;;;;;;;14.65;12.15;;;18.90;99.90;;;;;;5039647;28;20041;-88
2021/07/28 07:35:45;;;;;;;11.38;9.70;;;19.00;99.90;;;;;;5036069;28;20040;-88
2021/07/28 07:38:13;;;;;;;11.88;9.57;;;19.00;99.90;;;;;;5038607;28;20038;-88
2021/07/28 07:40:39;;;;;;;10.75;9.02;;;19.00;99.90;;;;;;5020392;28;20140;-88
2021/07/28 07:43:08;;;;;;;10.77;8.45;;;19.00;99.90;;;;;;5018363;28;20397;-88
2021/07/28 07:45:36;;;;;;;9.20;8.07;;;19.00;99.90;;;;;;5035945;28;20052;-89
2021/07/28 07:48:05;;;;;;;10.38;8.07;;;19.00;99.90;;;;;;5031462;28;20049;-89
2021/07/28 07:50:36;;;;;;;10.48;9.02;;;19.10;99.90;;;;;;5050544;28;20042;-89
2021/07/28 07:53:06;;;;;;;11.43;8.63;;;19.20;99.90;;;;;;5033898;28;20124;-88
2021/07/28 07:55:32;;;;;;;10.73;8.43;;;19.30;99.90;;;;;;5034848;28;20065;-88
2021/07/28 07:58:00;;;;;;;11.38;8.73;;;19.30;99.90;;;;;;5035044;28;20025;-88
2021/07/28 08:00:30;;;;;;;11.90;8.80;;;19.40;99.90;;;;;;5036256;28;20136;-89
2021/07/28 08:02:56;;;;;;;8.43;7.00;;;19.50;99.90;;;;;;5051896;28;20033;-87
2021/07/28 08:05:25;;;;;;;10.00;7.00;;;19.50;99.90;;;;;;5050942;28;20033;-89
2021/07/28 08:08:01;;;;;;;9.25;7.50;;;19.70;99.90;;;;;;5040274;28;20034;-88
2021/07/28 08:10:27;;;;;;;8.18;6.72;;;19.80;99.90;;;;;;5034522;28;20515;-88
2021/07/28 08:12:53;;;;;;;9.00;7.38;;;19.80;99.90;;;;;;5052992;28;20033;-88
2021/07/28 08:15:20;;;;;;;9.18;6.55;;;19.80;99.90;;;;;;5045562;28;20037;-89
2021/07/28 08:17:49;;;;;;;9.25;6.45;;;19.80;99.90;;;;;;5028978;28;20111;-87
2021/07/28 08:20:17;;;;;;;8.75;6.43;;;19.70;99.90;;;;;;5023744;28;20515;-87
2021/07/28 08:22:45;;;;;;;8.60;6.25;;;19.70;99.90;;;;;;5052953;28;20041;-87
2021/07/28 08:25:13;;;;;;;8.70;5.65;;;19.80;99.90;;;;;;5049664;28;20486;-88
2021/07/28 08:27:40;;;;;;;7.97;5.70;;;19.90;99.90;;;;;;5042222;28;20446;-88
2021/07/28 08:30:08;;;;;;;9.95;6.50;;;19.90;99.90;;;;;;5024917;28;20041;-88
2021/07/28 08:32:37;;;;;;;8.23;5.57;;;19.80;99.90;;;;;;5052185;28;20083;-89
2021/07/28 08:35:09;;;;;;;8.80;5.68;;;19.80;99.90;;;;;;5020453;28;20069;-89
2021/07/28 08:37:41;;;;;;;7.38;5.40;;;19.90;99.90;;;;;;5054742;28;20477;-88
2021/07/28 08:40:13;;;;;;;9.02;6.03;;;20.00;99.90;;;;;;5033417;28;20057;-88
2021/07/28 08:42:54;;;;;;;7.70;5.53;;;20.10;99.90;;;;;;5056892;28;20037;-89
2021/07/28 08:45:21;;;;;;;8.18;6.95;;;20.00;99.90;;;;;;5037451;28;20029;-88
2021/07/28 08:47:48;;;;;;;7.03;5.82;;;19.90;99.90;;;;;;5060656;28;20482;-89
2021/07/28 08:50:27;;;;;;;8.20;5.82;;;19.90;99.90;;;;;;5057386;28;20504;-89
2021/07/28 08:53:01;;;;;;;7.05;5.38;;;20.10;99.90;;;;;;5051765;28;20067;-88
2021/07/28 08:55:28;;;;;;;6.70;5.10;;;20.20;99.90;;;;;;5053296;28;20029;-88
2021/07/28 08:58:06;;;;;;;6.95;4.97;;;20.40;99.90;;;;;;5009976;28;20065;-87
2021/07/28 09:00:42;;;;;;;7.38;5.03;;;20.70;99.90;;;;;;5033435;28;20049;-89
2021/07/28 09:03:10;;;;;;;7.97;5.40;;;20.70;99.90;;;;;;5038328;28;20044;-88
2021/07/28 09:05:41;;;;;;;6.38;3.80;;;20.70;99.90;;;;;;5055119;28;20083;-88
2021/07/28 09:08:21;;;;;;;7.65;4.00;;;20.70;99.90;;;;;;5053074;28;20037;-88
2021/07/28 09:11:00;;;;;;;4.50;3.88;;;20.60;99.90;;;;;;5019514;28;20124;-89
2021/07/28 09:13:34;;;;;;;7.70;3.97;;;20.60;99.90;;;;;;5044630;28;20033;-88
2021/07/28 09:16:11;;;;;;;8.73;4.05;;;20.50;99.90;;;;;;5041996;28;20091;-88
2021/07/28 09:18:42;;;;;;;5.47;4.03;;;20.60;99.90;;;;;;5030664;28;20061;-87
2021/07/28 09:21:29;;;;;;;6.60;4.57;;;20.60;99.90;;;;;;5061936;28;20055;-87
2021/07/28 09:24:10;;;;;;;5.70;3.67;;;20.70;99.90;;;;;;5048281;28;20033;-89
2021/07/28 09:26:59;;;;;;;6.00;3.85;;;20.80;99.90;;;;;;5029649;28;20044;-88
2021/07/28 09:29:28;;;;;;;5.93;4.00;;;20.80;99.90;;;;;;5017110;28;20047;-90
2021/07/28 09:32:08;;;;;;;4.72;3.60;;;20.90;99.90;;;;;;5021949;28;20038;-88
2021/07/28 09:34:37;;;;;;;6.30;3.80;;;20.90;99.90;;;;;;5030083;28;20033;-87
2021/07/28 09:37:15;;;;;;;6.13;3.38;;;20.90;99.90;;;;;;5016285;28;20112;-89
2021/07/28 09:39:46;;;;;;;6.03;3.28;;;20.90;99.90;;;;;;5021120;28;20152;-88
2021/07/28 09:42:35;;;;;;;4.82;2.85;;;21.00;99.90;;;;;;5030345;28;20092;-89
2021/07/28 09:45:04;;;;;;;4.38;2.90;;;22.20;99.90;;;;;;5047500;28;20057;-87
2021/07/28 09:47:39;;;;;;;6.57;3.10;;;23.30;99.90;;;;;;5022695;28;20046;-86
2021/07/28 09:50:20;;;;;;;6.75;2.65;;;24.00;99.90;;;;;;5053764;28;20125;-87
2021/07/28 09:52:51;;;;;;;3.42;2.30;;;23.80;99.90;;;;;;5052618;28;20049;-87
2021/07/28 09:55:31;;;;;;;4.85;2.92;;;23.50;99.90;;;;;;5062039;28;20026;-86
2021/07/28 09:58:00;;;;;;;6.07;2.70;;;23.00;99.90;;;;;;5063684;28;20041;-88
2021/07/28 10:00:38;;;;;;;3.40;2.40;;;23.30;99.90;;;;;;5051755;28;20056;-87
2021/07/28 10:03:11;;;;;;;5.65;2.67;;;24.00;99.90;;;;;;5049296;28;20041;-89
2021/07/28 10:05:43;;;;;;;6.25;2.88;;;24.80;99.90;;;;;;5049781;28;20500;-88
2021/07/28 10:08:18;;;;;;;3.72;2.35;;;25.20;99.90;;;;;;5024147;28;20068;-88
2021/07/28 10:10:49;;;;;;;4.85;2.40;;;25.90;99.90;;;;;;5010584;28;20397;-88
2021/07/28 10:13:19;;;;;;;3.80;1.90;;;26.20;99.90;;;;;;5036376;28;20045;-88
2021/07/28 10:15:50;;;;;;;4.25;2.08;;;26.30;99.90;;;;;;5042640;28;20045;-89
2021/07/28 10:18:23;;;;;;;6.45;2.53;;;26.30;99.90;;;;;;5045017;28;20057;-87
2021/07/28 10:20:52;;;;;;;3.38;1.90;;;25.70;99.90;;;;;;5032399;28;20111;-87
2021/07/28 10:23:21;;;;;;;4.00;1.83;;;25.10;99.90;;;;;;5034675;28;20033;-89
2021/07/28 10:25:47;;;;;;;3.40;1.70;;;24.50;99.90;;;;;;5049569;28;20048;-87
2021/07/28 10:28:18;;;;;;;3.45;2.17;;;23.90;99.90;;;;;;5050358;28;20065;-87
2021/07/28 10:31:28;;;;;;;4.07;2.13;;;23.50;99.90;;;;;;5038137;28;21330;-87
2021/07/28 10:34:19;;;;;;;4.70;2.03;;;23.20;99.90;;;;;;5033548;28;20044;-88
2021/07/28 10:36:54;;;;;;;3.25;2.20;;;23.90;99.90;;;;;;5062722;28;20126;-88
2021/07/28 10:39:52;;;;;;;4.18;2.30;;;24.50;99.90;;;;;;5049586;28;20061;-88
2021/07/28 10:42:36;;;;;;;3.80;2.15;;;24.80;99.90;;;;;;5048264;28;20120;-88
2021/07/28 10:45:17;;;;;;;3.55;1.70;;;25.40;99.90;;;;;;5036180;28;20056;-89
2021/07/28 10:47:53;;;;;;;4.88;1.95;;;25.40;99.90;;;;;;5036317;28;20030;-88
2021/07/28 10:50:33;;;;;;;3.90;2.00;;;24.70;99.90;;;;;;5024095;28;20486;-90
2021/07/28 10:53:09;;;;;;;5.95;2.33;;;23.90;99.90;;;;;;5051682;28;20485;-90
2021/07/28 10:55:38;;;;;;;3.97;2.20;;;23.30;99.90;;;;;;5053826;28;20029;-87
2021/07/28 10:58:24;;;;;;;2.78;1.95;;;22.90;99.90;;;;;;5062474;28;20033;-91
2021/07/28 11:00:58;;;;;;;3.72;2.08;;;23.70;99.90;;;;;;5054036;28;20037;-89
2021/07/28 11:03:40;;;;;;;5.00;1.90;;;24.60;99.90;;;;;;5037026;28;20041;-89
2021/07/28 11:06:21;;;;;;;3.40;1.70;;;25.10;99.90;;;;;;5037629;28;20045;-88
2021/07/28 11:08:52;;;;;;;3.42;1.75;;;25.30;99.90;;;;;;5055515;28;20037;-90
2021/07/28 11:11:26;;;;;;;4.88;2.03;;;24.90;99.90;;;;;;5050652;28;20038;-88
2021/07/28 11:14:04;;;;;;;5.25;1.88;;;24.60;99.90;;;;;;5035361;28;20091;-91
2021/07/28 11:16:30;;;;;;;5.05;1.67;;;25.00;99.90;;;;;;5048278;28;20034;-91
2021/07/28 11:18:58;;;;;;;4.97;1.92;;;25.80;99.90;;;;;;5045056;28;20083;-90
2021/07/28 11:21:32;;;;;;;4.72;1.80;;;26.50;98.90;;;;;;5038785;28;20049;-90
2021/07/28 11:24:04;;;;;;;5.38;1.80;;;26.20;98.00;;;;;;5036951;28;20057;-90
2021/07/28 11:26:39;;;;;;;2.95;1.55;;;25.50;98.90;;;;;;5052435;28;20071;-90
2021/07/28 11:29:08;;;;;;;4.45;1.70;;;25.10;99.60;;;;;;5046978;28;20046;-90
2021/07/28 11:31:47;;;;;;;4.13;1.90;;;24.60;99.90;;;;;;5041279;28;20484;-90
2021/07/28 11:34:20;;;;;;;5.43;2.00;;;24.20;99.90;;;;;;5041426;28;20496;-90
2021/07/28 11:36:55;;;;;;;4.97;1.98;;;23.60;99.30;;;;;;5049756;28;20048;-87
2021/07/28 11:39:23;;;;;;;4.18;2.42;;;23.10;99.90;;;;;;5049730;28;20481;-88
2021/07/28 11:41:59;;;;;;;4.25;1.90;;;22.80;99.90;;;;;;5051900;28;20447;-86
2021/07/28 11:44:25;;;;;;;4.05;1.77;;;22.80;99.90;;;;;;5035648;28;20404;-88
2021/07/28 11:46:54;;;;;;;5.10;1.98;;;23.40;99.90;;;;;;5035401;28;20065;-85
2021/07/28 11:49:25;;;;;;;3.92;2.00;;;23.90;99.90;;;;;;5029521;28;20030;-85
2021/07/28 11:51:59;;;;;;;4.97;1.98;;;23.90;99.80;;;;;;5023655;28;20080;-85
2021/07/28 11:54:29;;;;;;;6.05;1.80;;;23.70;99.50;;;;;;5049667;28;20049;-84
2021/07/28 11:56:59;;;;;;;5.38;1.75;;;23.50;99.80;;;;;;5034071;28;20389;-85
2021/07/28 11:59:31;;;;;;;3.88;1.90;;;23.10;99.90;;;;;;5061950;28;20041;-84
2021/07/28 12:02:01;;;;;;;3.80;2.30;;;23.10;99.90;;;;;;5050738;28;20065;-85
2021/07/28 12:04:32;;;;;;;8.48;2.70;;;23.20;99.90;;;;;;5020163;28;20123;-85
2021/07/28 12:07:12;;;;;;;4.53;2.22;;;23.30;99.90;;;;;;5031818;28;20033;-85
2021/07/28 12:09:39;;;;;;;2.95;1.70;;;23.70;99.90;;;;;;5061864;28;20042;-84
2021/07/28 12:12:30;;;;;;;3.58;1.70;;;24.00;99.80;;;;;;5050282;28;20444;-85
2021/07/28 12:15:12;;;;;;;3.70;1.75;;;23.80;98.80;;;;;;5018200;28;20048;-85
2021/07/28 12:17:52;;;;;;;4.65;1.70;;;23.60;99.40;;;;;;5046220;28;20497;-85
2021/07/28 12:20:19;;;;;;;3.65;1.63;;;23.40;99.90;;;;;;5023032;28;20095;-84
2021/07/28 12:22:56;;;;;;;3.45;1.90;;;23.30;99.90;;;;;;5034181;28;20144;-85
2021/07/28 12:25:24;;;;;;;2.78;1.73;;;23.20;99.90;;;;;;5047880;28;20489;-84
2021/07/28 12:28:03;;;;;;;5.13;1.83;;;23.40;99.90;;;;;;5051913;28;20491;-85
2021/07/28 12:30:42;;;;;;;4.10;1.80;;;23.80;99.90;;;;;;5040115;28;20113;-86
2021/07/28 12:33:16;;;;;;;4.97;1.90;;;23.90;99.90;;;;;;5035471;28;20063;-85
2021/07/28 12:35:56;;;;;;;3.22;1.77;;;23.90;99.90;;;;;;5052492;28;20029;-85
2021/07/28 12:38:32;;;;;;;4.05;2.13;;;23.90;99.90;;;;;;5045449;28;20033;-84
2021/07/28 12:41:06;;;;;;;3.22;2.03;;;23.80;99.90;;;;;;5042955;28;20049;-85
2021/07/28 12:43:37;;;;;;;5.22;2.10;;;23.60;99.90;;;;;;5034151;28;20569;-84
2021/07/28 12:46:11;;;;;;;5.20;1.70;;;23.30;99.90;;;;;;5034066;28;20041;-85
2021/07/28 12:48:39;;;;;;;4.75;1.73;;;23.20;99.90;;;;;;5041723;28;20068;-86
2021/07/28 12:51:21;;;;;;;6.10;1.60;;;23.10;99.90;;;;;;5051340;28;20114;-85
2021/07/28 12:53:49;;;;;;;4.68;2.20;;;23.30;99.90;;;;;;5051712;28;20037;-85
2021/07/28 12:56:19;;;;;;;2.35;1.38;;;24.00;99.90;;;;;;5048754;28;20038;-86